sensor_id;sensor_type;location;lat;lon;timestamp;temperature;humidity
29207;DHT22;16247;50.840;4.382;2023-05-28T00:05:30;18.40;99.90
29207;DHT22;16247;50.840;4.382;2023-05-28T00:08:27;18.30;99.90
29207;DHT22;16247;50.840;4.382;2023-05-28T00:14:36;18.20;99.90
29207;DHT22;16247;50.840;4.382;2023-05-28T00:17:57;18.30;99.90
29207;DHT22;16247;50.840;4.382;2023-05-28T00:26:18;18.00;99.90
29207;DHT22;16247;50.840;4.382;2023-05-28T00:32:07;18.10;99.90
29207;DHT22;16247;50.840;4.382;2023-05-28T00:58:24;17.80;99.90
29207;DHT22;16247;50.840;4.382;2023-05-28T01:02:00;17.40;99.90
29207;DHT22;16247;50.840;4.382;2023-05-28T01:09:48;17.50;99.90
29207;DHT22;16247;50.840;4.382;2023-05-28T01:12:45;17.60;99.90
29207;DHT22;16247;50.840;4.382;2023-05-28T01:15:52;17.50;99.90
29207;DHT22;16247;50.840;4.382;2023-05-28T01:25:06;17.40;99.90
29207;DHT22;16247;50.840;4.382;2023-05-28T01:28:52;17.30;99.90
29207;DHT22;16247;50.840;4.382;2023-05-28T01:31:45;17.20;99.90
29207;DHT22;16247;50.840;4.382;2023-05-28T01:37:55;17.10;99.90
29207;DHT22;16247;50.840;4.382;2023-05-28T01:43:51;17.00;99.90
29207;DHT22;16247;50.840;4.382;2023-05-28T01:47:21;16.80;99.90
29207;DHT22;16247;50.840;4.382;2023-05-28T01:50:17;17.10;99.90
29207;DHT22;16247;50.840;4.382;2023-05-28T02:03:42;16.40;99.90
29207;DHT22;16247;50.840;4.382;2023-05-28T02:06:36;16.50;99.90
29207;DHT22;16247;50.840;4.382;2023-05-28T02:12:18;16.50;99.90
29207;DHT22;16247;50.840;4.382;2023-05-28T02:14:56;16.50;99.90
29207;DHT22;16247;50.840;4.382;2023-05-28T02:20:04;16.40;99.90
29207;DHT22;16247;50.840;4.382;2023-05-28T02:22:50;16.30;99.90
29207;DHT22;16247;50.840;4.382;2023-05-28T02:26:06;16.30;99.90
29207;DHT22;16247;50.840;4.382;2023-05-28T02:29:07;16.20;99.90
29207;DHT22;16247;50.840;4.382;2023-05-28T02:32:17;16.20;99.90
29207;DHT22;16247;50.840;4.382;2023-05-28T02:35:15;16.30;99.90
29207;DHT22;16247;50.840;4.382;2023-05-28T02:38:12;16.10;99.90
29207;DHT22;16247;50.840;4.382;2023-05-28T02:41:04;16.10;99.90
29207;DHT22;16247;50.840;4.382;2023-05-28T02:43:44;16.00;99.90
29207;DHT22;16247;50.840;4.382;2023-05-28T02:46:26;16.00;99.90
29207;DHT22;16247;50.840;4.382;2023-05-28T02:52:08;16.00;99.90
29207;DHT22;16247;50.840;4.382;2023-05-28T02:54:46;16.00;99.90
29207;DHT22;16247;50.840;4.382;2023-05-28T02:57:28;16.20;99.90
29207;DHT22;16247;50.840;4.382;2023-05-28T03:00:15;16.10;99.90
29207;DHT22;16247;50.840;4.382;2023-05-28T03:03:07;16.10;99.90
29207;DHT22;16247;50.840;4.382;2023-05-28T03:05:36;16.20;99.90
29207;DHT22;16247;50.840;4.382;2023-05-28T03:08:36;16.10;99.90
29207;DHT22;16247;50.840;4.382;2023-05-28T03:11:52;15.90;99.90
29207;DHT22;16247;50.840;4.382;2023-05-28T03:17:32;15.80;99.90
29207;DHT22;16247;50.840;4.382;2023-05-28T03:20:10;15.80;99.90
29207;DHT22;16247;50.840;4.382;2023-05-28T03:23:09;15.70;99.90
29207;DHT22;16247;50.840;4.382;2023-05-28T03:26:16;15.70;99.90
29207;DHT22;16247;50.840;4.382;2023-05-28T03:29:25;15.70;99.90
29207;DHT22;16247;50.840;4.382;2023-05-28T04:05:48;15.50;99.90
29207;DHT22;16247;50.840;4.382;2023-05-28T04:08:48;15.50;99.90
29207;DHT22;16247;50.840;4.382;2023-05-28T04:12:03;15.80;99.90
29207;DHT22;16247;50.840;4.382;2023-05-28T04:14:52;15.70;99.90
29207;DHT22;16247;50.840;4.382;2023-05-28T04:20:33;15.60;99.90
29207;DHT22;16247;50.840;4.382;2023-05-28T04:23:02;15.40;99.90
29207;DHT22;16247;50.840;4.382;2023-05-28T04:25:39;15.50;99.90
29207;DHT22;16247;50.840;4.382;2023-05-28T04:28:15;15.40;99.90
29207;DHT22;16247;50.840;4.382;2023-05-28T04:30:57;15.40;99.90
29207;DHT22;16247;50.840;4.382;2023-05-28T04:33:57;15.40;99.90
29207;DHT22;16247;50.840;4.382;2023-05-28T04:37:19;15.40;99.90
29207;DHT22;16247;50.840;4.382;2023-05-28T04:40:03;15.20;99.90
29207;DHT22;16247;50.840;4.382;2023-05-28T04:43:10;15.30;99.90
29207;DHT22;16247;50.840;4.382;2023-05-28T04:46:05;15.10;99.90
29207;DHT22;16247;50.840;4.382;2023-05-28T04:49:08;15.30;99.90
29207;DHT22;16247;50.840;4.382;2023-05-28T04:52:04;15.10;99.90
29207;DHT22;16247;50.840;4.382;2023-05-28T04:54:38;15.30;99.90
29207;DHT22;16247;50.840;4.382;2023-05-28T04:57:14;15.30;99.90
29207;DHT22;16247;50.840;4.382;2023-05-28T05:00:11;15.30;99.90
29207;DHT22;16247;50.840;4.382;2023-05-28T05:03:52;15.30;99.90
29207;DHT22;16247;50.840;4.382;2023-05-28T05:07:16;15.30;99.90
29207;DHT22;16247;50.840;4.382;2023-05-28T05:10:38;15.10;99.90
29207;DHT22;16247;50.840;4.382;2023-05-28T05:16:33;15.30;99.90
29207;DHT22;16247;50.840;4.382;2023-05-28T05:22:03;15.30;99.90
29207;DHT22;16247;50.840;4.382;2023-05-28T05:27:29;15.30;99.90
29207;DHT22;16247;50.840;4.382;2023-05-28T05:30:03;15.30;99.90
29207;DHT22;16247;50.840;4.382;2023-05-28T05:32:59;15.80;99.90
29207;DHT22;16247;50.840;4.382;2023-05-28T05:35:46;15.80;99.90
29207;DHT22;16247;50.840;4.382;2023-05-28T05:38:18;15.50;99.90
29207;DHT22;16247;50.840;4.382;2023-05-28T05:41:01;15.60;99.90
29207;DHT22;16247;50.840;4.382;2023-05-28T05:43:33;15.90;99.90
29207;DHT22;16247;50.840;4.382;2023-05-28T05:46:07;15.80;99.90
29207;DHT22;16247;50.840;4.382;2023-05-28T05:48:51;15.90;99.90
29207;DHT22;16247;50.840;4.382;2023-05-28T06:38:32;17.90;99.90
29207;DHT22;16247;50.840;4.382;2023-05-28T06:41:28;18.00;99.90
29207;DHT22;16247;50.840;4.382;2023-05-28T06:44:23;18.00;99.90
29207;DHT22;16247;50.840;4.382;2023-05-28T06:47:32;17.90;99.90
29207;DHT22;16247;50.840;4.382;2023-05-28T06:50:52;18.10;99.90
29207;DHT22;16247;50.840;4.382;2023-05-28T07:01:47;18.00;99.90
29207;DHT22;16247;50.840;4.382;2023-05-28T07:04:37;18.30;99.90
29207;DHT22;16247;50.840;4.382;2023-05-28T07:07:56;18.30;99.90
29207;DHT22;16247;50.840;4.382;2023-05-28T07:10:36;18.30;99.90
29207;DHT22;16247;50.840;4.382;2023-05-28T07:16:05;18.60;99.90
29207;DHT22;16247;50.840;4.382;2023-05-28T09:12:09;21.50;99.90
29207;DHT22;16247;50.840;4.382;2023-05-28T09:15:34;21.70;99.90
29207;DHT22;16247;50.840;4.382;2023-05-28T09:18:11;21.90;99.90
29207;DHT22;16247;50.840;4.382;2023-05-28T09:21:00;22.00;99.90
29207;DHT22;16247;50.840;4.382;2023-05-28T09:23:33;22.10;99.90
29207;DHT22;16247;50.840;4.382;2023-05-28T09:28:34;22.10;99.90
29207;DHT22;16247;50.840;4.382;2023-05-28T09:32:13;22.20;99.90
29207;DHT22;16247;50.840;4.382;2023-05-28T09:42:55;22.30;99.90
29207;DHT22;16247;50.840;4.382;2023-05-28T09:46:32;22.40;99.90
29207;DHT22;16247;50.840;4.382;2023-05-28T09:49:15;22.10;99.90
29207;DHT22;16247;50.840;4.382;2023-05-28T09:54:31;22.40;99.90
29207;DHT22;16247;50.840;4.382;2023-05-28T09:57:10;22.70;99.90
29207;DHT22;16247;50.840;4.382;2023-05-28T10:00:10;22.90;99.90
29207;DHT22;16247;50.840;4.382;2023-05-28T10:03:37;23.00;99.90
29207;DHT22;16247;50.840;4.382;2023-05-28T10:06:52;23.30;99.90
29207;DHT22;16247;50.840;4.382;2023-05-28T10:10:12;23.10;99.90
29207;DHT22;16247;50.840;4.382;2023-05-28T10:31:32;23.70;99.90
29207;DHT22;16247;50.840;4.382;2023-05-28T10:38:21;23.60;99.90
29207;DHT22;16247;50.840;4.382;2023-05-28T10:41:22;23.90;99.90
29207;DHT22;16247;50.840;4.382;2023-05-28T10:47:03;24.00;99.90
29207;DHT22;16247;50.840;4.382;2023-05-28T10:58:23;24.10;99.90
29207;DHT22;16247;50.840;4.382;2023-05-28T11:01:22;24.10;99.90
29207;DHT22;16247;50.840;4.382;2023-05-28T11:04:32;24.40;99.90
29207;DHT22;16247;50.840;4.382;2023-05-28T11:07:14;24.30;99.90
29207;DHT22;16247;50.840;4.382;2023-05-28T11:09:53;24.70;99.90
29207;DHT22;16247;50.840;4.382;2023-05-28T11:20:35;24.60;99.90
29207;DHT22;16247;50.840;4.382;2023-05-28T11:29:12;24.80;99.90
29207;DHT22;16247;50.840;4.382;2023-05-28T11:38:18;24.80;99.90
29207;DHT22;16247;50.840;4.382;2023-05-28T11:41:12;25.00;99.90
29207;DHT22;16247;50.840;4.382;2023-05-28T11:43:44;25.10;99.90
29207;DHT22;16247;50.840;4.382;2023-05-28T11:46:48;25.30;99.90
29207;DHT22;16247;50.840;4.382;2023-05-28T11:49:19;25.30;99.90
29207;DHT22;16247;50.840;4.382;2023-05-28T11:52:05;25.30;99.90
29207;DHT22;16247;50.840;4.382;2023-05-28T11:54:59;25.20;99.90
29207;DHT22;16247;50.840;4.382;2023-05-28T11:57:50;25.10;99.90
29207;DHT22;16247;50.840;4.382;2023-05-28T12:00:55;25.20;99.90
29207;DHT22;16247;50.840;4.382;2023-05-28T12:03:32;25.20;99.90
29207;DHT22;16247;50.840;4.382;2023-05-28T12:06:22;25.40;99.90
29207;DHT22;16247;50.840;4.382;2023-05-28T12:09:15;25.60;99.90
29207;DHT22;16247;50.840;4.382;2023-05-28T12:22:28;25.80;99.90
29207;DHT22;16247;50.840;4.382;2023-05-28T12:25:57;25.90;99.90
29207;DHT22;16247;50.840;4.382;2023-05-28T12:36:39;26.30;99.90
29207;DHT22;16247;50.840;4.382;2023-05-28T12:39:37;26.20;99.90
29207;DHT22;16247;50.840;4.382;2023-05-28T12:42:42;26.40;99.90
29207;DHT22;16247;50.840;4.382;2023-05-28T12:57:18;26.50;99.90
29207;DHT22;16247;50.840;4.382;2023-05-28T13:12:06;26.40;99.90
29207;DHT22;16247;50.840;4.382;2023-05-28T13:15:15;26.20;99.90
29207;DHT22;16247;50.840;4.382;2023-05-28T14:26:08;26.70;99.90
29207;DHT22;16247;50.840;4.382;2023-05-28T14:29:06;27.00;99.90
29207;DHT22;16247;50.840;4.382;2023-05-28T14:32:19;27.10;99.90
29207;DHT22;16247;50.840;4.382;2023-05-28T14:46:04;27.00;99.70
29207;DHT22;16247;50.840;4.382;2023-05-28T14:51:58;27.00;99.90
29207;DHT22;16247;50.840;4.382;2023-05-28T14:54:36;27.30;99.90
29207;DHT22;16247;50.840;4.382;2023-05-28T14:57:07;27.30;99.90
29207;DHT22;16247;50.840;4.382;2023-05-28T15:06:14;26.80;99.90
29207;DHT22;16247;50.840;4.382;2023-05-28T15:17:04;27.00;99.90
29207;DHT22;16247;50.840;4.382;2023-05-28T15:20:08;26.90;99.90
29207;DHT22;16247;50.840;4.382;2023-05-28T15:23:22;26.70;99.90
29207;DHT22;16247;50.840;4.382;2023-05-28T15:31:34;26.60;99.90
29207;DHT22;16247;50.840;4.382;2023-05-28T15:35:08;26.70;99.90
29207;DHT22;16247;50.840;4.382;2023-05-28T15:38:06;26.50;99.90
29207;DHT22;16247;50.840;4.382;2023-05-28T15:40:40;26.50;99.90
29207;DHT22;16247;50.840;4.382;2023-05-28T15:43:47;26.90;99.80
29207;DHT22;16247;50.840;4.382;2023-05-28T15:47:02;26.80;99.40
29207;DHT22;16247;50.840;4.382;2023-05-28T15:49:53;26.80;98.30
29207;DHT22;16247;50.840;4.382;2023-05-28T15:52:59;26.60;96.70
29207;DHT22;16247;50.840;4.382;2023-05-28T15:56:44;26.40;96.80
29207;DHT22;16247;50.840;4.382;2023-05-28T16:04:52;26.40;95.00
29207;DHT22;16247;50.840;4.382;2023-05-28T16:08:03;26.50;95.50
29207;DHT22;16247;50.840;4.382;2023-05-28T16:10:38;26.40;95.30
29207;DHT22;16247;50.840;4.382;2023-05-28T16:13:27;26.40;95.00
29207;DHT22;16247;50.840;4.382;2023-05-28T16:16:38;26.50;94.80
29207;DHT22;16247;50.840;4.382;2023-05-28T16:19:43;26.50;94.80
29207;DHT22;16247;50.840;4.382;2023-05-28T16:22:14;26.30;94.70
29207;DHT22;16247;50.840;4.382;2023-05-28T16:25:06;26.40;94.80
29207;DHT22;16247;50.840;4.382;2023-05-28T16:28:10;26.30;94.20
29207;DHT22;16247;50.840;4.382;2023-05-28T16:33:46;26.20;94.00
29207;DHT22;16247;50.840;4.382;2023-05-28T16:36:45;26.20;94.10
29207;DHT22;16247;50.840;4.382;2023-05-28T16:55:30;25.90;94.00
29207;DHT22;16247;50.840;4.382;2023-05-28T16:58:40;25.80;93.90
29207;DHT22;16247;50.840;4.382;2023-05-28T17:01:39;25.90;94.10
29207;DHT22;16247;50.840;4.382;2023-05-28T17:04:19;26.10;94.30
29207;DHT22;16247;50.840;4.382;2023-05-28T17:07:00;26.00;94.50
29207;DHT22;16247;50.840;4.382;2023-05-28T17:09:56;26.00;95.10
29207;DHT22;16247;50.840;4.382;2023-05-28T17:12:45;26.20;95.70
29207;DHT22;16247;50.840;4.382;2023-05-28T17:15:40;26.20;96.20
29207;DHT22;16247;50.840;4.382;2023-05-28T17:18:24;25.90;96.90
29207;DHT22;16247;50.840;4.382;2023-05-28T17:21:14;26.00;97.10
29207;DHT22;16247;50.840;4.382;2023-05-28T17:23:55;26.00;97.20
29207;DHT22;16247;50.840;4.382;2023-05-28T17:27:15;25.90;97.40
29207;DHT22;16247;50.840;4.382;2023-05-28T17:32:31;25.90;97.90
29207;DHT22;16247;50.840;4.382;2023-05-28T17:35:06;26.00;98.10
29207;DHT22;16247;50.840;4.382;2023-05-28T17:37:59;26.00;98.10
29207;DHT22;16247;50.840;4.382;2023-05-28T18:11:50;26.30;97.10
29207;DHT22;16247;50.840;4.382;2023-05-28T18:27:53;25.60;95.80
29207;DHT22;16247;50.840;4.382;2023-05-28T18:31:02;25.80;95.80
29207;DHT22;16247;50.840;4.382;2023-05-28T18:33:57;25.80;95.80
29207;DHT22;16247;50.840;4.382;2023-05-28T19:05:41;24.00;99.90
29207;DHT22;16247;50.840;4.382;2023-05-28T20:21:57;20.40;99.90
29207;DHT22;16247;50.840;4.382;2023-05-28T22:45:51;17.70;99.90
29207;DHT22;16247;50.840;4.382;2023-05-28T22:49:07;17.80;99.90
